createdAt,value
2023-04-06T00:01:27.698Z,101963.53
2023-04-06T00:03:55.030Z,101964.19
2023-04-06T00:06:22.975Z,101953.63
2023-04-06T00:08:50.597Z,101957.78
2023-04-06T00:11:18.091Z,101955.09
2023-04-06T00:13:46.477Z,101948.00
2023-04-06T00:16:13.825Z,101954.03
2023-04-06T00:18:41.389Z,101951.44
2023-04-06T00:21:08.692Z,101948.84
2023-04-06T00:23:36.193Z,101939.13
2023-04-06T00:26:03.653Z,101944.34
2023-04-06T00:28:37.048Z,101941.69
2023-04-06T00:31:04.711Z,101943.38
2023-04-06T00:33:32.173Z,101936.31
2023-04-06T00:35:59.448Z,101939.69
2023-04-06T00:38:28.055Z,101930.84
2023-04-06T00:40:56.536Z,101934.25
2023-04-06T00:43:25.506Z,101928.00
2023-04-06T00:45:53.520Z,101927.91
2023-04-06T00:48:21.172Z,101930.34
2023-04-06T00:50:48.824Z,101924.19
2023-04-06T00:53:16.430Z,101919.69
2023-04-06T00:55:44.000Z,101921.31
2023-04-06T00:58:12.244Z,101915.97
2023-04-06T01:00:48.241Z,101912.34
2023-04-06T01:03:19.050Z,101913.97
2023-04-06T01:05:47.946Z,101899.03
2023-04-06T01:08:23.494Z,101894.66
2023-04-06T01:10:54.799Z,101898.78
2023-04-06T01:13:26.433Z,101895.28
2023-04-06T01:16:01.238Z,101891.69
2023-04-06T01:18:36.233Z,101882.03
2023-04-06T01:21:16.786Z,101886.06
2023-04-06T01:24:01.191Z,101887.59
2023-04-06T01:26:37.035Z,101885.75
2023-04-06T01:29:11.394Z,101884.69
2023-04-06T01:31:40.567Z,101874.13
2023-04-06T01:34:08.420Z,101879.25
2023-04-06T01:36:36.012Z,101883.53
2023-04-06T01:39:18.705Z,101872.16
2023-04-06T01:41:48.222Z,101870.38
2023-04-06T01:44:20.763Z,101867.69
2023-04-06T01:47:01.795Z,101866.81
2023-04-06T01:49:29.212Z,101866.72
2023-04-06T01:51:57.554Z,101858.72
2023-04-06T01:54:25.008Z,101862.94
2023-04-06T01:57:15.028Z,101857.59
2023-04-06T01:59:48.093Z,101852.41
2023-04-06T02:02:34.333Z,101853.22
2023-04-06T02:05:08.549Z,101856.69
2023-04-06T02:07:37.270Z,101856.53
2023-04-06T02:10:05.476Z,101852.03
2023-04-06T02:12:38.236Z,101848.47
2023-04-06T02:15:09.307Z,101843.19
2023-04-06T02:17:36.754Z,101846.50
2023-04-06T02:20:04.390Z,101842.16
2023-04-06T02:22:31.757Z,101837.56
2023-04-06T02:25:00.217Z,101841.78
2023-04-06T02:27:29.539Z,101833.84
2023-04-06T02:29:56.941Z,101835.50
2023-04-06T02:32:25.062Z,101829.53
2023-04-06T02:34:52.921Z,101832.22
2023-04-06T02:37:23.113Z,101829.63
2023-04-06T02:39:51.851Z,101832.13
2023-04-06T02:42:19.426Z,101832.91
2023-04-06T02:44:49.212Z,101826.66
2023-04-06T02:47:18.192Z,101824.78
2023-04-06T02:49:48.892Z,101823.72
2023-04-06T02:52:19.140Z,101821.75
2023-04-06T02:54:47.491Z,101820.78
2023-04-06T02:57:21.730Z,101812.72
2023-04-06T02:59:49.052Z,101811.72
2023-04-06T03:02:21.921Z,101815.94
2023-04-06T03:04:49.894Z,101814.97
2023-04-06T03:07:29.548Z,101814.09
2023-04-06T03:09:56.896Z,101810.50
2023-04-06T03:12:24.175Z,101813.88
2023-04-06T03:15:11.960Z,101811.22
2023-04-06T03:17:43.022Z,101810.31
2023-04-06T03:20:17.523Z,101811.22
2023-04-06T03:22:46.059Z,101805.22
2023-04-06T03:25:16.397Z,101803.50
2023-04-06T03:27:45.911Z,101807.81
2023-04-06T03:30:18.699Z,101804.44
2023-04-06T03:32:46.245Z,101805.41
2023-04-06T03:35:13.647Z,101802.91
2023-04-06T03:37:41.012Z,101798.41
2023-04-06T03:40:08.650Z,101798.50
2023-04-06T03:42:36.648Z,101793.31
2023-04-06T03:45:10.732Z,101801.00
2023-04-06T03:47:44.847Z,101788.75
2023-04-06T03:50:13.247Z,101795.66
2023-04-06T03:52:40.981Z,101792.88
2023-04-06T03:55:08.975Z,101790.28
2023-04-06T03:57:38.633Z,101788.31
2023-04-06T04:00:07.043Z,101794.31
2023-04-06T04:02:40.424Z,101790.72
2023-04-06T04:05:08.514Z,101791.56
2023-04-06T04:07:37.960Z,101791.47
2023-04-06T04:10:07.702Z,101786.97
2023-04-06T04:12:35.038Z,101787.78
2023-04-06T04:15:02.566Z,101792.88
2023-04-06T04:17:31.859Z,101796.22
2023-04-06T04:20:03.884Z,101788.50
2023-04-06T04:22:31.572Z,101789.41
2023-04-06T04:25:00.493Z,101786.00
2023-04-06T04:27:30.878Z,101787.59
2023-04-06T04:29:58.872Z,101785.00
2023-04-06T04:32:28.541Z,101786.81
2023-04-06T04:34:58.906Z,101786.00
2023-04-06T04:37:36.271Z,101779.91
2023-04-06T04:40:05.008Z,101786.97
2023-04-06T04:42:41.288Z,101786.97
2023-04-06T04:45:13.917Z,101784.38
2023-04-06T04:47:42.760Z,101794.84
2023-04-06T04:50:12.520Z,101783.50
2023-04-06T04:52:43.371Z,101787.78
2023-04-06T04:55:15.657Z,101784.38
2023-04-06T04:57:46.366Z,101792.16
2023-04-06T05:00:14.810Z,101789.56
2023-04-06T05:02:47.986Z,101795.72
2023-04-06T05:05:27.310Z,101786.38
2023-04-06T05:07:55.300Z,101789.03
2023-04-06T05:10:42.261Z,101788.13
2023-04-06T05:13:10.053Z,101783.13
2023-04-06T05:15:39.332Z,101788.41
2023-04-06T05:18:15.059Z,101783.22
2023-04-06T05:20:43.857Z,101778.19
2023-04-06T05:23:12.374Z,101780.97
2023-04-06T05:25:40.046Z,101775.88
2023-04-06T05:28:19.333Z,101775.22
2023-04-06T05:30:47.385Z,101776.31
2023-04-06T05:33:16.358Z,101773.94
2023-04-06T05:36:04.828Z,101771.63
2023-04-06T05:38:34.377Z,101773.50
2023-04-06T05:41:10.070Z,101772.84
2023-04-06T05:43:38.321Z,101766.91
2023-04-06T05:46:05.716Z,101765.47
2023-04-06T05:48:33.671Z,101770.13
2023-04-06T05:51:03.446Z,101766.09
2023-04-06T05:53:40.160Z,101774.19
2023-04-06T05:56:10.020Z,101778.84
2023-04-06T05:58:37.324Z,101764.22
2023-04-06T06:01:06.381Z,101764.50
2023-04-06T06:03:41.141Z,101756.94
2023-04-06T06:06:08.602Z,101757.09
2023-04-06T06:08:50.107Z,101758.22
2023-04-06T06:11:18.960Z,101761.19
2023-04-06T06:13:49.484Z,101757.19
2023-04-06T06:16:18.671Z,101761.66
2023-04-06T06:18:48.155Z,101760.34
2023-04-06T06:21:16.350Z,101757.19
2023-04-06T06:23:44.128Z,101749.69
2023-04-06T06:26:15.409Z,101746.59
2023-04-06T06:28:42.818Z,101750.47
2023-04-06T06:31:15.246Z,101754.22
2023-04-06T06:33:44.056Z,101755.50
2023-04-06T06:36:11.391Z,101750.66
2023-04-06T06:38:39.923Z,101754.88
2023-04-06T06:41:07.464Z,101749.81
2023-04-06T06:43:36.846Z,101756.31
2023-04-06T06:46:08.436Z,101752.91
2023-04-06T06:48:36.972Z,101755.88
2023-04-06T06:51:04.956Z,101747.00
2023-04-06T06:53:32.609Z,101751.06
2023-04-06T06:55:59.944Z,101751.19
2023-04-06T06:58:27.890Z,101747.34
2023-04-06T07:00:59.354Z,101743.47
2023-04-06T07:03:28.192Z,101748.28
2023-04-06T07:05:56.792Z,101736.34
2023-04-06T07:08:26.135Z,101734.91
2023-04-06T07:10:54.252Z,101743.41
2023-04-06T07:13:25.126Z,101732.09
2023-04-06T07:15:56.136Z,101739.53
2023-04-06T07:18:24.255Z,101739.06
2023-04-06T07:20:51.846Z,101737.78
2023-04-06T07:23:19.540Z,101733.16
2023-04-06T07:25:48.524Z,101733.03
2023-04-06T07:28:16.596Z,101728.56
2023-04-06T07:30:44.936Z,101726.19
2023-04-06T07:33:13.524Z,101730.16
2023-04-06T07:35:42.668Z,101724.25
2023-04-06T07:38:11.788Z,101723.69
2023-04-06T07:40:40.933Z,101725.25
2023-04-06T07:43:08.377Z,101714.47
2023-04-06T07:45:36.790Z,101719.44
2023-04-06T07:48:04.300Z,101724.34
2023-04-06T07:50:33.098Z,101720.44
2023-04-06T07:53:01.808Z,101703.94
2023-04-06T07:55:31.010Z,101701.44
2023-04-06T07:57:58.862Z,101702.53
2023-04-06T08:00:26.367Z,101707.13
2023-04-06T08:02:53.770Z,101701.22
2023-04-06T08:05:21.586Z,101695.31
2023-04-06T08:07:49.138Z,101686.88
2023-04-06T08:10:16.644Z,101691.44
2023-04-06T08:12:43.915Z,101696.06
2023-04-06T08:15:11.656Z,101687.59
2023-04-06T08:17:38.950Z,101691.31
2023-04-06T08:20:06.857Z,101685.44
2023-04-06T08:22:34.454Z,101704.47
2023-04-06T08:25:01.899Z,101697.13
2023-04-06T08:27:29.436Z,101692.34
2023-04-06T08:29:56.788Z,101692.88
2023-04-06T08:32:24.264Z,101694.19
2023-04-06T08:34:54.931Z,101688.50
2023-04-06T08:37:23.336Z,101683.63
2023-04-06T08:39:50.662Z,101679.69
2023-04-06T08:42:21.637Z,101683.56
2023-04-06T08:44:50.549Z,101681.34
2023-04-06T08:47:17.851Z,101689.56
2023-04-06T08:49:46.753Z,101683.34
2023-04-06T08:52:15.846Z,101687.06
2023-04-06T08:54:46.148Z,101685.34
2023-04-06T08:57:14.273Z,101689.66
2023-04-06T08:59:42.223Z,101686.22
2023-04-06T09:02:16.775Z,101682.81
2023-04-06T09:04:46.930Z,101688.09
2023-04-06T09:07:16.853Z,101682.03
2023-04-06T09:09:48.719Z,101676.78
2023-04-06T09:12:30.113Z,101664.50
2023-04-06T09:14:58.580Z,101662.88
2023-04-06T09:17:28.142Z,101661.16
2023-04-06T09:19:56.098Z,101669.84
2023-04-06T09:22:24.140Z,101673.19
2023-04-06T09:24:54.319Z,101665.16
2023-04-06T09:27:35.840Z,101664.16
2023-04-06T09:30:22.364Z,101662.44
2023-04-06T09:32:51.827Z,101659.88
2023-04-06T09:35:21.217Z,101649.38
2023-04-06T09:37:49.840Z,101644.06
2023-04-06T09:40:18.857Z,101644.09
2023-04-06T09:42:47.853Z,101642.38
2023-04-06T09:45:17.099Z,101645.03
2023-04-06T09:47:46.512Z,101645.00
2023-04-06T09:50:15.792Z,101637.91
2023-04-06T09:52:45.963Z,101641.50
2023-04-06T09:55:17.833Z,101633.78
2023-04-06T09:58:03.003Z,101641.72
2023-04-06T10:00:33.301Z,101632.06
2023-04-06T10:03:12.754Z,101630.31
2023-04-06T10:06:03.123Z,101632.19
2023-04-06T10:08:33.626Z,101623.47
2023-04-06T10:11:01.875Z,101628.75
2023-04-06T10:13:29.828Z,101627.03
2023-04-06T10:16:01.485Z,101620.06
2023-04-06T10:18:29.092Z,101621.88
2023-04-06T10:21:10.520Z,101625.47
2023-04-06T10:23:53.245Z,101612.22
2023-04-06T10:26:23.626Z,101610.38
2023-04-06T10:28:52.196Z,101621.78
2023-04-06T10:31:28.538Z,101616.47
2023-04-06T10:34:01.256Z,101611.16
2023-04-06T10:36:34.737Z,101609.47
2023-04-06T10:39:04.957Z,101615.66
2023-04-06T10:41:42.009Z,101608.63
2023-04-06T10:44:17.907Z,101604.25
2023-04-06T10:47:02.997Z,101599.00
2023-04-06T10:49:31.667Z,101593.75
2023-04-06T10:51:59.472Z,101593.00
2023-04-06T10:54:29.357Z,101586.06
2023-04-06T10:56:57.618Z,101591.44
2023-04-06T10:59:26.392Z,101579.22
2023-04-06T11:01:56.100Z,101588.97
2023-04-06T11:04:24.579Z,101589.09
2023-04-06T11:06:52.087Z,101584.72
2023-04-06T11:09:32.584Z,101582.16
2023-04-06T11:12:00.062Z,101576.00
2023-04-06T11:14:27.902Z,101581.34
2023-04-06T11:16:56.346Z,101585.75
2023-04-06T11:19:24.210Z,101586.66
2023-04-06T11:21:51.647Z,101582.31
2023-04-06T11:24:20.473Z,101582.31
2023-04-06T11:26:57.001Z,101571.75
2023-04-06T11:29:32.706Z,101577.03
2023-04-06T11:32:02.170Z,101572.72
2023-04-06T11:34:31.744Z,101570.13
2023-04-06T11:37:07.636Z,101565.75
2023-04-06T11:39:53.283Z,101564.91
2023-04-06T11:42:24.747Z,101558.81
2023-04-06T11:44:54.816Z,101565.91
2023-04-06T11:47:31.826Z,101563.34
2023-04-06T11:50:10.744Z,101560.78
2023-04-06T11:52:39.557Z,101557.34
2023-04-06T11:55:16.087Z,101547.72
2023-04-06T11:57:45.327Z,101551.28
2023-04-06T12:00:13.373Z,101554.84
2023-04-06T12:02:41.364Z,101547.81
2023-04-06T12:05:09.712Z,101547.84
2023-04-06T12:07:37.374Z,101549.56
2023-04-06T12:10:05.310Z,101546.03
2023-04-06T12:12:33.032Z,101543.41
2023-04-06T12:15:01.057Z,101540.75
2023-04-06T12:17:28.513Z,101533.72
2023-04-06T12:20:01.808Z,101538.13
2023-04-06T12:22:32.349Z,101532.91
2023-04-06T12:25:00.243Z,101540.00
2023-04-06T12:27:28.008Z,101528.56
2023-04-06T12:29:56.643Z,101525.94
2023-04-06T12:32:30.409Z,101527.75
2023-04-06T12:34:57.757Z,101531.31
2023-04-06T12:37:25.980Z,101535.72
2023-04-06T12:39:53.773Z,101528.66
2023-04-06T12:42:22.088Z,101523.34
2023-04-06T12:44:49.672Z,101521.59
2023-04-06T12:47:17.304Z,101517.16
2023-04-06T12:49:44.901Z,101520.66
2023-04-06T12:52:12.278Z,101518.94
2023-04-06T12:54:39.587Z,101511.91
2023-04-06T12:57:06.930Z,101507.50
2023-04-06T12:59:36.905Z,101507.50
2023-04-06T13:02:06.200Z,101509.22
2023-04-06T13:04:34.049Z,101503.88
2023-04-06T13:07:01.453Z,101517.06
2023-04-06T13:09:29.005Z,101510.00
2023-04-06T13:11:56.819Z,101496.75
2023-04-06T13:14:24.157Z,101493.22
2023-04-06T13:16:52.313Z,101490.53
2023-04-06T13:19:19.760Z,101489.69
2023-04-06T13:21:47.137Z,101487.03
2023-04-06T13:24:16.590Z,101492.31
2023-04-06T13:26:45.214Z,101490.53
2023-04-06T13:29:12.553Z,101487.03
2023-04-06T13:31:45.280Z,101489.66
2023-04-06T13:34:12.849Z,101486.16
2023-04-06T13:36:43.215Z,101487.06
2023-04-06T13:39:10.829Z,101491.50
2023-04-06T13:41:41.250Z,101484.44
2023-04-06T13:44:08.643Z,101480.94
2023-04-06T13:46:36.069Z,101483.56
2023-04-06T13:49:03.542Z,101481.81
2023-04-06T13:51:31.851Z,101478.28
2023-04-06T13:53:59.288Z,101480.03
2023-04-06T13:56:27.608Z,101476.50
2023-04-06T13:58:56.867Z,101478.28
2023-04-06T14:01:25.046Z,101474.75
2023-04-06T14:03:52.650Z,101465.94
2023-04-06T14:06:30.964Z,101480.03
2023-04-06T14:08:59.714Z,101478.28
2023-04-06T14:11:28.038Z,101480.94
2023-04-06T14:13:57.966Z,101481.78
2023-04-06T14:16:26.008Z,101470.31
2023-04-06T14:18:53.354Z,101464.13
2023-04-06T14:21:21.136Z,101465.88
2023-04-06T14:23:49.082Z,101464.13
2023-04-06T14:26:16.420Z,101463.22
2023-04-06T14:28:43.985Z,101452.63
2023-04-06T14:31:14.578Z,101455.25
2023-04-06T14:33:43.010Z,101459.63
2023-04-06T14:36:11.366Z,101457.84
2023-04-06T14:38:41.252Z,101451.66
2023-04-06T14:41:11.652Z,101457.81
2023-04-06T14:43:39.827Z,101451.59
2023-04-06T14:46:09.411Z,101456.88
2023-04-06T14:48:37.836Z,101448.91
2023-04-06T14:51:05.106Z,101457.75
2023-04-06T14:53:32.994Z,101448.91
2023-04-06T14:56:00.724Z,101444.50
2023-04-06T14:58:28.022Z,101444.47
2023-04-06T15:01:01.630Z,101446.22
2023-04-06T15:03:30.956Z,101448.84
2023-04-06T15:05:59.398Z,101450.59
2023-04-06T15:08:26.756Z,101448.84
2023-04-06T15:10:55.775Z,101450.56
2023-04-06T15:13:23.363Z,101444.41
2023-04-06T15:15:52.291Z,101444.41
2023-04-06T15:18:20.014Z,101451.41
2023-04-06T15:20:47.312Z,101445.25
2023-04-06T15:23:14.799Z,101440.81
2023-04-06T15:25:42.470Z,101448.72
2023-04-06T15:28:09.815Z,101451.34
2023-04-06T15:30:37.587Z,101446.94
2023-04-06T15:33:06.519Z,101446.88
2023-04-06T15:35:35.378Z,101454.75
2023-04-06T15:38:03.681Z,101448.56
2023-04-06T15:40:31.405Z,101448.50
2023-04-06T15:42:59.541Z,101447.59
2023-04-06T15:45:27.414Z,101447.53
2023-04-06T15:47:54.758Z,101458.97
2023-04-06T15:50:22.197Z,101450.06
2023-04-06T15:52:49.517Z,101450.03
2023-04-06T15:55:18.019Z,101452.66
2023-04-06T15:57:45.400Z,101453.47
2023-04-06T16:00:14.357Z,101449.88
2023-04-06T16:02:41.742Z,101452.41
2023-04-06T16:05:09.529Z,101455.03
2023-04-06T16:07:36.792Z,101450.59
2023-04-06T16:10:06.318Z,101474.25
2023-04-06T16:12:36.507Z,101464.47
2023-04-06T16:15:04.114Z,101466.97
2023-04-06T16:17:32.095Z,101475.69
2023-04-06T16:19:59.379Z,101475.59
2023-04-06T16:22:28.687Z,101479.84
2023-04-06T16:24:56.073Z,101480.63
2023-04-06T16:27:24.005Z,101487.56
2023-04-06T16:29:51.729Z,101484.88
2023-04-06T16:32:19.050Z,101482.97
2023-04-06T16:34:47.422Z,101484.69
2023-04-06T16:37:14.853Z,101481.91
2023-04-06T16:39:42.211Z,101483.59
2023-04-06T16:42:09.653Z,101492.38
2023-04-06T16:44:36.978Z,101484.41
2023-04-06T16:47:04.732Z,101483.50
2023-04-06T16:49:32.206Z,101485.22
2023-04-06T16:52:02.876Z,101491.38
2023-04-06T16:54:30.192Z,101481.66
2023-04-06T16:56:57.838Z,101489.47
2023-04-06T16:59:27.694Z,101481.50
2023-04-06T17:01:55.451Z,101485.00
2023-04-06T17:04:24.223Z,101486.69
2023-04-06T17:06:52.245Z,101495.38
2023-04-06T17:09:19.494Z,101495.28
2023-04-06T17:11:47.244Z,101498.66
2023-04-06T17:14:14.592Z,101498.56
2023-04-06T17:16:41.968Z,101502.81
2023-04-06T17:19:09.247Z,101511.50
2023-04-06T17:21:36.703Z,101506.94
2023-04-06T17:24:04.573Z,101505.00
2023-04-06T17:26:31.827Z,101516.22
2023-04-06T17:28:59.059Z,101512.50
2023-04-06T17:31:26.466Z,101517.63
2023-04-06T17:33:54.227Z,101513.94
2023-04-06T17:36:22.022Z,101512.97
2023-04-06T17:38:49.521Z,101519.03
2023-04-06T17:41:16.832Z,101516.28
2023-04-06T17:43:44.229Z,101517.91
2023-04-06T17:46:11.711Z,101529.22
2023-04-06T17:48:39.513Z,101528.25
2023-04-06T17:51:06.851Z,101527.31
2023-04-06T17:53:37.132Z,101521.06
2023-04-06T17:56:05.144Z,101524.47
2023-04-06T17:58:32.926Z,101528.72
2023-04-06T18:01:06.966Z,101543.53
2023-04-06T18:03:34.974Z,101539.91
2023-04-06T18:06:16.170Z,101544.94
2023-04-06T18:08:43.769Z,101540.47
2023-04-06T18:11:18.259Z,101552.59
2023-04-06T18:13:46.269Z,101548.13
2023-04-06T18:16:14.634Z,101549.75
2023-04-06T18:18:41.971Z,101555.72
2023-04-06T18:21:09.377Z,101555.66
2023-04-06T18:23:37.774Z,101557.25
2023-04-06T18:26:06.612Z,101559.75
2023-04-06T18:28:34.228Z,101557.91
2023-04-06T18:31:02.397Z,101552.56
2023-04-06T18:33:30.291Z,101554.25
2023-04-06T18:35:57.657Z,101548.03
2023-04-06T18:38:24.895Z,101548.84
2023-04-06T18:40:52.430Z,101555.84
2023-04-06T18:43:19.775Z,101551.44
2023-04-06T18:45:47.709Z,101555.81
2023-04-06T18:48:16.239Z,101550.50
2023-04-06T18:50:54.540Z,101551.28
2023-04-06T18:53:21.880Z,101560.00
2023-04-06T18:55:50.794Z,101558.19
2023-04-06T18:58:18.034Z,101555.47
2023-04-06T19:00:45.461Z,101555.47
2023-04-06T19:03:12.999Z,101557.16
2023-04-06T19:05:41.917Z,101557.16
2023-04-06T19:08:09.630Z,101549.19
2023-04-06T19:10:37.637Z,101552.69
2023-04-06T19:13:05.566Z,101551.81
2023-04-06T19:15:33.579Z,101553.56
2023-04-06T19:18:00.823Z,101549.16
2023-04-06T19:20:28.107Z,101548.28
2023-04-06T19:25:22.580Z,101553.47
2023-04-06T19:27:49.885Z,101562.22
2023-04-06T19:30:17.205Z,101552.59
2023-04-06T19:32:44.754Z,101554.28
2023-04-06T19:35:12.205Z,101561.19
2023-04-06T19:37:39.810Z,101561.09
2023-04-06T19:40:10.851Z,101559.31
2023-04-06T19:42:38.997Z,101550.53
2023-04-06T19:45:06.670Z,101558.31
2023-04-06T19:47:35.497Z,101560.88
2023-04-06T19:50:04.541Z,101564.38
2023-04-06T19:52:33.228Z,101557.28
2023-04-06T19:55:00.847Z,101553.72
2023-04-06T19:57:28.244Z,101557.22
2023-04-06T19:59:56.432Z,101551.97
2023-04-06T20:02:23.969Z,101556.25
2023-04-06T20:04:51.493Z,101551.88
2023-04-06T20:07:19.970Z,101554.50
2023-04-06T20:09:47.246Z,101557.94
2023-04-06T20:12:14.528Z,101551.81
2023-04-06T20:14:41.933Z,101546.53
2023-04-06T20:17:11.234Z,101549.16
2023-04-06T20:19:38.736Z,101552.63
2023-04-06T20:22:06.052Z,101545.59
2023-04-06T20:24:33.307Z,101540.31
2023-04-06T20:27:00.598Z,101536.75
2023-04-06T20:29:28.026Z,101543.75
2023-04-06T20:31:55.640Z,101541.13
2023-04-06T20:34:26.299Z,101538.47
2023-04-06T20:36:53.936Z,101542.78
2023-04-06T20:39:21.872Z,101549.75
2023-04-06T20:41:49.098Z,101545.34
2023-04-06T20:44:18.994Z,101541.84
2023-04-06T20:46:49.184Z,101547.09
2023-04-06T20:49:17.496Z,101541.72
2023-04-06T20:51:45.919Z,101543.41
2023-04-06T20:54:13.178Z,101540.75
2023-04-06T20:56:40.582Z,101539.84
2023-04-06T20:59:07.941Z,101535.41
2023-04-06T21:01:35.427Z,101531.03
2023-04-06T21:04:05.977Z,101524.03
2023-04-06T21:06:33.795Z,101528.41
2023-04-06T21:09:01.695Z,101531.03
2023-04-06T21:11:29.024Z,101526.63
2023-04-06T21:13:57.159Z,101529.25
2023-04-06T21:16:24.476Z,101526.56
2023-04-06T21:18:51.888Z,101525.69
2023-04-06T21:21:19.706Z,101516.03
2023-04-06T21:23:47.297Z,101519.53
2023-04-06T21:26:14.684Z,101514.22
2023-04-06T21:28:41.928Z,101518.63
2023-04-06T21:31:09.346Z,101513.34
2023-04-06T21:33:36.699Z,101509.00
2023-04-06T21:36:08.279Z,101510.72
2023-04-06T21:38:35.724Z,101508.88
2023-04-06T21:41:03.303Z,101512.41
2023-04-06T21:43:30.703Z,101512.38
2023-04-06T21:45:58.157Z,101507.97
2023-04-06T21:48:25.438Z,101506.16
2023-04-06T21:50:52.698Z,101505.28
2023-04-06T21:53:20.160Z,101506.97
2023-04-06T21:55:48.106Z,101504.34
2023-04-06T21:58:15.982Z,101507.84
2023-04-06T22:00:43.629Z,101504.34
2023-04-06T22:03:11.322Z,101507.78
2023-04-06T22:05:38.794Z,101510.41
2023-04-06T22:08:06.257Z,101503.44
2023-04-06T22:10:33.637Z,101505.06
2023-04-06T22:13:00.957Z,101498.06
2023-04-06T22:15:28.477Z,101507.69
2023-04-06T22:17:55.802Z,101505.06
2023-04-06T22:20:23.204Z,101502.44
2023-04-06T22:22:50.573Z,101498.03
2023-04-06T22:25:18.045Z,101504.13
2023-04-06T22:27:45.668Z,101493.66
2023-04-06T22:30:13.296Z,101486.66
2023-04-06T22:32:40.920Z,101487.53
2023-04-06T22:35:08.891Z,101495.34
2023-04-06T22:37:36.134Z,101494.41
2023-04-06T22:40:03.605Z,101491.72
2023-04-06T22:42:31.110Z,101494.34
2023-04-06T22:44:58.488Z,101492.63
2023-04-06T22:47:26.028Z,101490.03
2023-04-06T22:49:53.450Z,101489.19
2023-04-06T22:52:20.834Z,101493.59
2023-04-06T22:54:48.233Z,101495.34
2023-04-06T22:57:16.060Z,101489.28
2023-04-06T22:59:43.495Z,101493.66
2023-04-06T23:02:11.214Z,101493.66
2023-04-06T23:04:38.583Z,101496.28
2023-04-06T23:07:06.075Z,101499.81
2023-04-06T23:09:33.487Z,101490.16
2023-04-06T23:12:01.112Z,101491.03
2023-04-06T23:14:28.357Z,101493.66
2023-04-06T23:16:56.037Z,101497.19
2023-04-06T23:19:23.386Z,101491.97
2023-04-06T23:21:51.005Z,101495.44
2023-04-06T23:24:18.224Z,101491.03
2023-04-06T23:26:45.798Z,101494.53
2023-04-06T23:29:13.029Z,101496.22
2023-04-06T23:31:40.340Z,101490.97
2023-04-06T23:34:10.700Z,101491.81
2023-04-06T23:36:38.125Z,101497.00
2023-04-06T23:39:05.844Z,101491.72
2023-04-06T23:41:33.294Z,101491.72
2023-04-06T23:44:00.755Z,101491.72
2023-04-06T23:46:28.251Z,101488.19
2023-04-06T23:48:55.560Z,101489.06
2023-04-06T23:51:22.888Z,101488.16
2023-04-06T23:53:50.081Z,101486.41
2023-04-06T23:56:17.348Z,101488.09
2023-04-06T23:58:44.629Z,101493.22
